Anchorage, AK (99516)

9:38 AM AKST on January 26, 2015 (GMT -0900)
Mid Hillside De Armoun | Change Station
CLOSE
Current Station
Personal Weather Station
Location: Anchorage, AK
Elevation: 373 ft
Nearby Weather Stations

Elev 373 ft 61.09 °N, 149.80 °W | Updated 9 seconds ago

Light Snow
Light Snow Mist
-2.6 °F
Feels Like -3 °F
N
2.0
Wind Variable Wind from NE
Gusts 4.9 mph

Today
High -- | Low -- °F
--% Chance of Precip.
Yesterday
High -- | Low -- °F
Precip. -- in
9:33 AM 4:50 PM
Waxing Crescent, 45% visible
Pressure 30.04 in
Visibility 8.0 miles
Clouds Mostly Cloudy 200 ft
Windchill -3 °F
Dew Point -15 °F
Humidity 54%
Rainfall 0.00 in
Snow Depth Not available.
UV 0.0 out of 12
Pollen Not available.
Air Quality Not available.
Flu Activity Not available.
SPECI PAMR 261832Z 02005KT 8SM -SN BR BKN002 M19/M22 A3004 RMK AO2 P0000 T11891217 $

More Conditions Fewer Conditions

Pressure 30.04 in
Visibility 8.0 miles
Clouds Mostly Cloudy 200 ft
Windchill -3 °F
Dew Point -15 °F
Humidity 54%
Rainfall 0.00 in
Snow Depth Not available.
UV 0.0 out of 12
Pollen Not available.
Air Quality Not available.
Flu Activity Not available.
SPECI PAMR 261832Z 02005KT 8SM -SN BR BKN002 M19/M22 A3004 RMK AO2 P0000 T11891217 $

More Conditions Fewer Conditions

10-Day Weather Forecast

Almanac

Astronomy

Jan. 26, 2015 Rise Set
Actual Time
Civil Twilight
Nautical Twilight
Astronomical Twilight
Moon
Length of Visible Light
Length of Day
Tomorrow will be .
, % of the Moon is Illuminated

Today's Extremes

State Highs State Lows

Community

WunderPhotos

Upload Photos

1,790,309 photos uploaded!

WunderBlogs® & News

Nearby

Air Quality

  Air Quality AQ Index Pollutant
Not available.

Snow Depth

Station Depth Elevation

Earthquake Activity

City Distance Mag. Time & Date
Minimum magnitude displayed is 2.5.

Coastal Water Temperatures

Place Temperature

Nearby Weather Stations